<?xml version="1.0" encoding="UTF-8" standalone="no" ?>
<gpx xmlns="http://www.topografix.com/GPX/1/1" xmlns:xsi="http://www.w3.org/2001/XMLSchema-instance" xsi:schemaLocation="http://www.topografix.com/GPX/1/1 http://www.topografix.com/GPX/1/1/gpx.xsd" version="1.1" creator="VisuGPX - https://www.visugpx.com">
  <metadata>
    <name>secteur Saverne - Dabo - Petite Pierre</name>
  </metadata>
  <trk>
    <name><![CDATA[secteur Saverne - Dabo - Petite Pierre_6]]></name>
    <trkseg>
      <trkpt lat="48.66086" lon="7.17766">
        <ele>456.8</ele>
        <time>2020-08-12T07:19:12Z</time>
      </trkpt>
      <trkpt lat="48.66086" lon="7.17766">
        <ele>456.8</ele>
        <time>2020-08-12T07:19:12Z</time>
      </trkpt>
      <trkpt lat="48.66086" lon="7.17766">
        <ele>456.8</ele>
        <time>2020-08-12T07:19:12Z</time>
      </trkpt>
      <trkpt lat="48.66086" lon="7.17766">
        <ele>456.8</ele>
        <time>2020-08-12T07:19:12Z</time>
      </trkpt>
      <trkpt lat="48.66086" lon="7.17766">
        <ele>456.8</ele>
        <time>2020-08-12T07:19:12Z</time>
      </trkpt>
      <trkpt lat="48.66086" lon="7.17766">
        <ele>456.8</ele>
        <time>2020-08-12T07:19:12Z</time>
      </trkpt>
      <trkpt lat="48.66086" lon="7.17766">
        <ele>456.8</ele>
        <time>2020-08-12T07:19:12Z</time>
      </trkpt>
      <trkpt lat="48.66086" lon="7.17766">
        <ele>456.8</ele>
        <time>2020-08-12T07:19:12Z</time>
      </trkpt>
      <trkpt lat="48.66077" lon="7.17769">
        <ele>456.8</ele>
        <time>2020-08-12T07:19:14Z</time>
      </trkpt>
      <trkpt lat="48.66069" lon="7.17768">
        <ele>456.7</ele>
        <time>2020-08-12T07:19:16Z</time>
      </trkpt>
      <trkpt lat="48.6606" lon="7.17765">
        <ele>457</ele>
        <time>2020-08-12T07:19:18Z</time>
      </trkpt>
      <trkpt lat="48.66051" lon="7.17762">
        <ele>457</ele>
        <time>2020-08-12T07:19:20Z</time>
      </trkpt>
      <trkpt lat="48.66042" lon="7.17759">
        <ele>456.7</ele>
        <time>2020-08-12T07:19:22Z</time>
      </trkpt>
      <trkpt lat="48.66032" lon="7.17756">
        <ele>456.6</ele>
        <time>2020-08-12T07:19:24Z</time>
      </trkpt>
      <trkpt lat="48.66023" lon="7.17756">
        <ele>456.7</ele>
        <time>2020-08-12T07:19:26Z</time>
      </trkpt>
      <trkpt lat="48.66014" lon="7.17759">
        <ele>457.2</ele>
        <time>2020-08-12T07:19:28Z</time>
      </trkpt>
      <trkpt lat="48.66007" lon="7.17761">
        <ele>457.6</ele>
        <time>2020-08-12T07:19:30Z</time>
      </trkpt>
      <trkpt lat="48.66003" lon="7.17764">
        <ele>457.6</ele>
        <time>2020-08-12T07:19:32Z</time>
      </trkpt>
      <trkpt lat="48.65999" lon="7.17769">
        <ele>457.2</ele>
        <time>2020-08-12T07:19:35Z</time>
      </trkpt>
      <trkpt lat="48.65995" lon="7.17773">
        <ele>456.9</ele>
        <time>2020-08-12T07:19:47Z</time>
      </trkpt>
      <trkpt lat="48.6599" lon="7.17775">
        <ele>457.6</ele>
        <time>2020-08-12T07:19:54Z</time>
      </trkpt>
      <trkpt lat="48.65985" lon="7.17778">
        <ele>457.1</ele>
        <time>2020-08-12T07:19:57Z</time>
      </trkpt>
      <trkpt lat="48.65981" lon="7.1778">
        <ele>456.8</ele>
        <time>2020-08-12T07:19:59Z</time>
      </trkpt>
      <trkpt lat="48.65975" lon="7.17783">
        <ele>457.4</ele>
        <time>2020-08-12T07:20:02Z</time>
      </trkpt>
      <trkpt lat="48.65969" lon="7.17788">
        <ele>458</ele>
        <time>2020-08-12T07:20:05Z</time>
      </trkpt>
      <trkpt lat="48.65965" lon="7.17792">
        <ele>458.3</ele>
        <time>2020-08-12T07:20:07Z</time>
      </trkpt>
      <trkpt lat="48.6596" lon="7.17798">
        <ele>458.7</ele>
        <time>2020-08-12T07:20:10Z</time>
      </trkpt>
      <trkpt lat="48.65955" lon="7.17803">
        <ele>459.3</ele>
        <time>2020-08-12T07:20:12Z</time>
      </trkpt>
      <trkpt lat="48.65949" lon="7.17807">
        <ele>459.5</ele>
        <time>2020-08-12T07:20:14Z</time>
      </trkpt>
      <trkpt lat="48.65945" lon="7.17809">
        <ele>459.6</ele>
        <time>2020-08-12T07:20:16Z</time>
      </trkpt>
      <trkpt lat="48.6594" lon="7.17812">
        <ele>459.3</ele>
        <time>2020-08-12T07:20:18Z</time>
      </trkpt>
      <trkpt lat="48.65934" lon="7.17815">
        <ele>460.1</ele>
        <time>2020-08-12T07:20:21Z</time>
      </trkpt>
      <trkpt lat="48.65929" lon="7.17818">
        <ele>460.8</ele>
        <time>2020-08-12T07:20:23Z</time>
      </trkpt>
      <trkpt lat="48.65923" lon="7.17821">
        <ele>461.9</ele>
        <time>2020-08-12T07:20:26Z</time>
      </trkpt>
      <trkpt lat="48.65919" lon="7.17823">
        <ele>462.3</ele>
        <time>2020-08-12T07:20:28Z</time>
      </trkpt>
      <trkpt lat="48.65913" lon="7.17823">
        <ele>463</ele>
        <time>2020-08-12T07:20:30Z</time>
      </trkpt>
      <trkpt lat="48.65907" lon="7.17823">
        <ele>463.6</ele>
        <time>2020-08-12T07:20:32Z</time>
      </trkpt>
      <trkpt lat="48.65901" lon="7.17822">
        <ele>464.2</ele>
        <time>2020-08-12T07:20:34Z</time>
      </trkpt>
      <trkpt lat="48.65895" lon="7.1782">
        <ele>464.2</ele>
        <time>2020-08-12T07:20:36Z</time>
      </trkpt>
      <trkpt lat="48.65888" lon="7.17816">
        <ele>464.6</ele>
        <time>2020-08-12T07:20:38Z</time>
      </trkpt>
      <trkpt lat="48.6588" lon="7.17812">
        <ele>465.2</ele>
        <time>2020-08-12T07:20:40Z</time>
      </trkpt>
      <trkpt lat="48.65873" lon="7.1781">
        <ele>465.6</ele>
        <time>2020-08-12T07:20:42Z</time>
      </trkpt>
      <trkpt lat="48.65865" lon="7.17806">
        <ele>466.1</ele>
        <time>2020-08-12T07:20:44Z</time>
      </trkpt>
      <trkpt lat="48.6586" lon="7.17803">
        <ele>464.1</ele>
        <time>2020-08-12T07:20:46Z</time>
      </trkpt>
      <trkpt lat="48.65857" lon="7.17798">
        <ele>465.9</ele>
        <time>2020-08-12T07:20:57Z</time>
      </trkpt>
      <trkpt lat="48.65852" lon="7.17793">
        <ele>463</ele>
        <time>2020-08-12T07:21:10Z</time>
      </trkpt>
      <trkpt lat="48.65848" lon="7.17791">
        <ele>462.3</ele>
        <time>2020-08-12T07:21:13Z</time>
      </trkpt>
      <trkpt lat="48.65841" lon="7.17789">
        <ele>461.6</ele>
        <time>2020-08-12T07:21:16Z</time>
      </trkpt>
      <trkpt lat="48.65837" lon="7.17785">
        <ele>461.3</ele>
        <time>2020-08-12T07:21:18Z</time>
      </trkpt>
      <trkpt lat="48.65834" lon="7.1778">
        <ele>461.2</ele>
        <time>2020-08-12T07:21:20Z</time>
      </trkpt>
      <trkpt lat="48.65831" lon="7.17775">
        <ele>461.1</ele>
        <time>2020-08-12T07:21:22Z</time>
      </trkpt>
      <trkpt lat="48.65825" lon="7.17772">
        <ele>460.7</ele>
        <time>2020-08-12T07:21:25Z</time>
      </trkpt>
      <trkpt lat="48.65819" lon="7.17769">
        <ele>460.5</ele>
        <time>2020-08-12T07:21:27Z</time>
      </trkpt>
      <trkpt lat="48.6581" lon="7.17763">
        <ele>459.9</ele>
        <time>2020-08-12T07:21:29Z</time>
      </trkpt>
      <trkpt lat="48.65802" lon="7.17758">
        <ele>460.3</ele>
        <time>2020-08-12T07:21:31Z</time>
      </trkpt>
      <trkpt lat="48.65793" lon="7.17751">
        <ele>459.8</ele>
        <time>2020-08-12T07:21:33Z</time>
      </trkpt>
      <trkpt lat="48.65785" lon="7.17746">
        <ele>459.7</ele>
        <time>2020-08-12T07:21:35Z</time>
      </trkpt>
      <trkpt lat="48.65776" lon="7.17744">
        <ele>460.1</ele>
        <time>2020-08-12T07:21:37Z</time>
      </trkpt>
      <trkpt lat="48.65766" lon="7.17746">
        <ele>460.1</ele>
        <time>2020-08-12T07:21:39Z</time>
      </trkpt>
      <trkpt lat="48.65756" lon="7.17748">
        <ele>459.2</ele>
        <time>2020-08-12T07:21:41Z</time>
      </trkpt>
      <trkpt lat="48.65745" lon="7.17748">
        <ele>458.9</ele>
        <time>2020-08-12T07:21:43Z</time>
      </trkpt>
      <trkpt lat="48.65733" lon="7.17748">
        <ele>459.2</ele>
        <time>2020-08-12T07:21:45Z</time>
      </trkpt>
      <trkpt lat="48.65722" lon="7.17748">
        <ele>459.7</ele>
        <time>2020-08-12T07:21:47Z</time>
      </trkpt>
      <trkpt lat="48.65713" lon="7.17749">
        <ele>459.4</ele>
        <time>2020-08-12T07:21:49Z</time>
      </trkpt>
      <trkpt lat="48.65705" lon="7.17748">
        <ele>459.1</ele>
        <time>2020-08-12T07:21:51Z</time>
      </trkpt>
      <trkpt lat="48.65697" lon="7.17749">
        <ele>459.1</ele>
        <time>2020-08-12T07:21:53Z</time>
      </trkpt>
      <trkpt lat="48.65689" lon="7.17751">
        <ele>459.2</ele>
        <time>2020-08-12T07:21:55Z</time>
      </trkpt>
      <trkpt lat="48.65681" lon="7.17753">
        <ele>459.1</ele>
        <time>2020-08-12T07:21:57Z</time>
      </trkpt>
      <trkpt lat="48.65673" lon="7.17754">
        <ele>459.1</ele>
        <time>2020-08-12T07:21:59Z</time>
      </trkpt>
      <trkpt lat="48.65665" lon="7.17754">
        <ele>459</ele>
        <time>2020-08-12T07:22:01Z</time>
      </trkpt>
      <trkpt lat="48.65657" lon="7.17754">
        <ele>459</ele>
        <time>2020-08-12T07:22:03Z</time>
      </trkpt>
      <trkpt lat="48.6565" lon="7.17753">
        <ele>459</ele>
        <time>2020-08-12T07:22:05Z</time>
      </trkpt>
      <trkpt lat="48.65645" lon="7.17751">
        <ele>459.3</ele>
        <time>2020-08-12T07:22:10Z</time>
      </trkpt>
      <trkpt lat="48.6564" lon="7.17747">
        <ele>459.7</ele>
        <time>2020-08-12T07:22:23Z</time>
      </trkpt>
      <trkpt lat="48.65635" lon="7.17744">
        <ele>459.3</ele>
        <time>2020-08-12T07:22:25Z</time>
      </trkpt>
      <trkpt lat="48.6563" lon="7.17741">
        <ele>459.5</ele>
        <time>2020-08-12T07:22:27Z</time>
      </trkpt>
      <trkpt lat="48.65624" lon="7.17736">
        <ele>459.2</ele>
        <time>2020-08-12T07:22:29Z</time>
      </trkpt>
      <trkpt lat="48.65618" lon="7.17733">
        <ele>459.2</ele>
        <time>2020-08-12T07:22:31Z</time>
      </trkpt>
      <trkpt lat="48.65611" lon="7.1773">
        <ele>459.2</ele>
        <time>2020-08-12T07:22:33Z</time>
      </trkpt>
      <trkpt lat="48.65603" lon="7.17726">
        <ele>459.4</ele>
        <time>2020-08-12T07:22:35Z</time>
      </trkpt>
      <trkpt lat="48.65595" lon="7.17723">
        <ele>458.9</ele>
        <time>2020-08-12T07:22:37Z</time>
      </trkpt>
      <trkpt lat="48.65587" lon="7.17719">
        <ele>459.5</ele>
        <time>2020-08-12T07:22:39Z</time>
      </trkpt>
      <trkpt lat="48.65579" lon="7.17714">
        <ele>459.8</ele>
        <time>2020-08-12T07:22:41Z</time>
      </trkpt>
      <trkpt lat="48.65571" lon="7.1771">
        <ele>460.1</ele>
        <time>2020-08-12T07:22:43Z</time>
      </trkpt>
      <trkpt lat="48.65563" lon="7.17705">
        <ele>460.6</ele>
        <time>2020-08-12T07:22:45Z</time>
      </trkpt>
      <trkpt lat="48.65554" lon="7.17701">
        <ele>461</ele>
        <time>2020-08-12T07:22:47Z</time>
      </trkpt>
      <trkpt lat="48.65547" lon="7.17696">
        <ele>461.5</ele>
        <time>2020-08-12T07:22:49Z</time>
      </trkpt>
      <trkpt lat="48.65539" lon="7.17691">
        <ele>462.1</ele>
        <time>2020-08-12T07:22:51Z</time>
      </trkpt>
      <trkpt lat="48.65531" lon="7.17686">
        <ele>462.5</ele>
        <time>2020-08-12T07:22:53Z</time>
      </trkpt>
      <trkpt lat="48.65524" lon="7.17681">
        <ele>463.1</ele>
        <time>2020-08-12T07:22:55Z</time>
      </trkpt>
      <trkpt lat="48.65518" lon="7.17676">
        <ele>463.8</ele>
        <time>2020-08-12T07:22:57Z</time>
      </trkpt>
      <trkpt lat="48.65511" lon="7.17671">
        <ele>464.4</ele>
        <time>2020-08-12T07:22:59Z</time>
      </trkpt>
      <trkpt lat="48.65505" lon="7.17666">
        <ele>464.3</ele>
        <time>2020-08-12T07:23:01Z</time>
      </trkpt>
      <trkpt lat="48.65498" lon="7.17661">
        <ele>464</ele>
        <time>2020-08-12T07:23:03Z</time>
      </trkpt>
      <trkpt lat="48.65491" lon="7.17655">
        <ele>463.6</ele>
        <time>2020-08-12T07:23:05Z</time>
      </trkpt>
      <trkpt lat="48.65485" lon="7.17648">
        <ele>463.6</ele>
        <time>2020-08-12T07:23:07Z</time>
      </trkpt>
      <trkpt lat="48.65478" lon="7.17641">
        <ele>463.4</ele>
        <time>2020-08-12T07:23:09Z</time>
      </trkpt>
      <trkpt lat="48.65473" lon="7.17633">
        <ele>463.2</ele>
        <time>2020-08-12T07:23:11Z</time>
      </trkpt>
      <trkpt lat="48.65465" lon="7.17619">
        <ele>463.3</ele>
        <time>2020-08-12T07:23:14Z</time>
      </trkpt>
      <trkpt lat="48.65459" lon="7.1761">
        <ele>464</ele>
        <time>2020-08-12T07:23:16Z</time>
      </trkpt>
      <trkpt lat="48.65453" lon="7.17603">
        <ele>464</ele>
        <time>2020-08-12T07:23:18Z</time>
      </trkpt>
      <trkpt lat="48.65448" lon="7.17593">
        <ele>463.9</ele>
        <time>2020-08-12T07:23:20Z</time>
      </trkpt>
      <trkpt lat="48.65444" lon="7.17582">
        <ele>463.8</ele>
        <time>2020-08-12T07:23:22Z</time>
      </trkpt>
      <trkpt lat="48.6544" lon="7.17573">
        <ele>464.1</ele>
        <time>2020-08-12T07:23:24Z</time>
      </trkpt>
      <trkpt lat="48.65436" lon="7.17562">
        <ele>463.9</ele>
        <time>2020-08-12T07:23:26Z</time>
      </trkpt>
      <trkpt lat="48.65432" lon="7.17549">
        <ele>465</ele>
        <time>2020-08-12T07:23:29Z</time>
      </trkpt>
      <trkpt lat="48.65431" lon="7.17539">
        <ele>465.2</ele>
        <time>2020-08-12T07:23:31Z</time>
      </trkpt>
      <trkpt lat="48.6543" lon="7.17526">
        <ele>465.7</ele>
        <time>2020-08-12T07:23:33Z</time>
      </trkpt>
      <trkpt lat="48.65427" lon="7.17508">
        <ele>466.9</ele>
        <time>2020-08-12T07:23:36Z</time>
      </trkpt>
      <trkpt lat="48.65428" lon="7.17497">
        <ele>467.5</ele>
        <time>2020-08-12T07:23:38Z</time>
      </trkpt>
      <trkpt lat="48.65429" lon="7.17485">
        <ele>468.3</ele>
        <time>2020-08-12T07:23:40Z</time>
      </trkpt>
      <trkpt lat="48.65431" lon="7.1747">
        <ele>469.4</ele>
        <time>2020-08-12T07:23:43Z</time>
      </trkpt>
      <trkpt lat="48.65431" lon="7.1746">
        <ele>469.7</ele>
        <time>2020-08-12T07:23:45Z</time>
      </trkpt>
      <trkpt lat="48.65431" lon="7.17451">
        <ele>470.1</ele>
        <time>2020-08-12T07:23:47Z</time>
      </trkpt>
      <trkpt lat="48.65431" lon="7.17442">
        <ele>470.7</ele>
        <time>2020-08-12T07:23:49Z</time>
      </trkpt>
      <trkpt lat="48.65431" lon="7.17431">
        <ele>471.4</ele>
        <time>2020-08-12T07:23:51Z</time>
      </trkpt>
      <trkpt lat="48.65433" lon="7.17419">
        <ele>472.2</ele>
        <time>2020-08-12T07:23:53Z</time>
      </trkpt>
      <trkpt lat="48.65437" lon="7.17405">
        <ele>472.9</ele>
        <time>2020-08-12T07:23:55Z</time>
      </trkpt>
      <trkpt lat="48.65441" lon="7.17393">
        <ele>473.4</ele>
        <time>2020-08-12T07:23:57Z</time>
      </trkpt>
      <trkpt lat="48.65443" lon="7.17381">
        <ele>473.9</ele>
        <time>2020-08-12T07:23:59Z</time>
      </trkpt>
      <trkpt lat="48.65445" lon="7.17371">
        <ele>475.3</ele>
        <time>2020-08-12T07:24:01Z</time>
      </trkpt>
      <trkpt lat="48.65448" lon="7.17361">
        <ele>476.5</ele>
        <time>2020-08-12T07:24:03Z</time>
      </trkpt>
      <trkpt lat="48.65451" lon="7.1735">
        <ele>473.2</ele>
        <time>2020-08-12T07:24:05Z</time>
      </trkpt>
      <trkpt lat="48.65455" lon="7.17339">
        <ele>473.9</ele>
        <time>2020-08-12T07:24:07Z</time>
      </trkpt>
      <trkpt lat="48.65459" lon="7.17331">
        <ele>475</ele>
        <time>2020-08-12T07:24:09Z</time>
      </trkpt>
      <trkpt lat="48.65462" lon="7.17323">
        <ele>476.3</ele>
        <time>2020-08-12T07:24:11Z</time>
      </trkpt>
      <trkpt lat="48.65466" lon="7.17313">
        <ele>477.3</ele>
        <time>2020-08-12T07:24:13Z</time>
      </trkpt>
      <trkpt lat="48.65469" lon="7.173">
        <ele>478.1</ele>
        <time>2020-08-12T07:24:15Z</time>
      </trkpt>
      <trkpt lat="48.65473" lon="7.17287">
        <ele>478.7</ele>
        <time>2020-08-12T07:24:17Z</time>
      </trkpt>
      <trkpt lat="48.65479" lon="7.17272">
        <ele>479.1</ele>
        <time>2020-08-12T07:24:19Z</time>
      </trkpt>
      <trkpt lat="48.65484" lon="7.17257">
        <ele>479.5</ele>
        <time>2020-08-12T07:24:21Z</time>
      </trkpt>
      <trkpt lat="48.65489" lon="7.17242">
        <ele>479.8</ele>
        <time>2020-08-12T07:24:23Z</time>
      </trkpt>
      <trkpt lat="48.65494" lon="7.17227">
        <ele>480</ele>
        <time>2020-08-12T07:24:25Z</time>
      </trkpt>
      <trkpt lat="48.65499" lon="7.1721">
        <ele>480.4</ele>
        <time>2020-08-12T07:24:27Z</time>
      </trkpt>
      <trkpt lat="48.65503" lon="7.17195">
        <ele>480.6</ele>
        <time>2020-08-12T07:24:29Z</time>
      </trkpt>
      <trkpt lat="48.65507" lon="7.17181">
        <ele>481.1</ele>
        <time>2020-08-12T07:24:31Z</time>
      </trkpt>
      <trkpt lat="48.65512" lon="7.17167">
        <ele>481.3</ele>
        <time>2020-08-12T07:24:33Z</time>
      </trkpt>
      <trkpt lat="48.65517" lon="7.17155">
        <ele>481.8</ele>
        <time>2020-08-12T07:24:35Z</time>
      </trkpt>
      <trkpt lat="48.65524" lon="7.17145">
        <ele>482.4</ele>
        <time>2020-08-12T07:24:37Z</time>
      </trkpt>
      <trkpt lat="48.6553" lon="7.17137">
        <ele>482.6</ele>
        <time>2020-08-12T07:24:39Z</time>
      </trkpt>
      <trkpt lat="48.65537" lon="7.1713">
        <ele>482.8</ele>
        <time>2020-08-12T07:24:41Z</time>
      </trkpt>
      <trkpt lat="48.65545" lon="7.17124">
        <ele>482.6</ele>
        <time>2020-08-12T07:24:43Z</time>
      </trkpt>
      <trkpt lat="48.65552" lon="7.17119">
        <ele>482.6</ele>
        <time>2020-08-12T07:24:45Z</time>
      </trkpt>
      <trkpt lat="48.6556" lon="7.17114">
        <ele>482.3</ele>
        <time>2020-08-12T07:24:47Z</time>
      </trkpt>
      <trkpt lat="48.65564" lon="7.17109">
        <ele>482.3</ele>
        <time>2020-08-12T07:24:49Z</time>
      </trkpt>
      <trkpt lat="48.65565" lon="7.17102">
        <ele>485.8</ele>
        <time>2020-08-12T07:25:07Z</time>
      </trkpt>
      <trkpt lat="48.65568" lon="7.17094">
        <ele>486.2</ele>
        <time>2020-08-12T07:25:11Z</time>
      </trkpt>
      <trkpt lat="48.65571" lon="7.17088">
        <ele>486.3</ele>
        <time>2020-08-12T07:25:13Z</time>
      </trkpt>
      <trkpt lat="48.65573" lon="7.1708">
        <ele>486.2</ele>
        <time>2020-08-12T07:25:15Z</time>
      </trkpt>
      <trkpt lat="48.65576" lon="7.17067">
        <ele>485.7</ele>
        <time>2020-08-12T07:25:17Z</time>
      </trkpt>
      <trkpt lat="48.65576" lon="7.17051">
        <ele>484.8</ele>
        <time>2020-08-12T07:25:19Z</time>
      </trkpt>
      <trkpt lat="48.65574" lon="7.17034">
        <ele>484.3</ele>
        <time>2020-08-12T07:25:21Z</time>
      </trkpt>
      <trkpt lat="48.65571" lon="7.17015">
        <ele>483.8</ele>
        <time>2020-08-12T07:25:23Z</time>
      </trkpt>
      <trkpt lat="48.65568" lon="7.16998">
        <ele>483.6</ele>
        <time>2020-08-12T07:25:25Z</time>
      </trkpt>
      <trkpt lat="48.65563" lon="7.16983">
        <ele>483.4</ele>
        <time>2020-08-12T07:25:27Z</time>
      </trkpt>
      <trkpt lat="48.65558" lon="7.16967">
        <ele>483.4</ele>
        <time>2020-08-12T07:25:29Z</time>
      </trkpt>
      <trkpt lat="48.65555" lon="7.1695">
        <ele>483</ele>
        <time>2020-08-12T07:25:31Z</time>
      </trkpt>
      <trkpt lat="48.65552" lon="7.1693">
        <ele>482.4</ele>
        <time>2020-08-12T07:25:33Z</time>
      </trkpt>
      <trkpt lat="48.65548" lon="7.16911">
        <ele>481.3</ele>
        <time>2020-08-12T07:25:35Z</time>
      </trkpt>
      <trkpt lat="48.65544" lon="7.16893">
        <ele>480.3</ele>
        <time>2020-08-12T07:25:37Z</time>
      </trkpt>
      <trkpt lat="48.65542" lon="7.16876">
        <ele>478</ele>
        <time>2020-08-12T07:25:39Z</time>
      </trkpt>
      <trkpt lat="48.65539" lon="7.16858">
        <ele>476.6</ele>
        <time>2020-08-12T07:25:41Z</time>
      </trkpt>
      <trkpt lat="48.65535" lon="7.1684">
        <ele>475.4</ele>
        <time>2020-08-12T07:25:43Z</time>
      </trkpt>
      <trkpt lat="48.65531" lon="7.16823">
        <ele>474.5</ele>
        <time>2020-08-12T07:25:45Z</time>
      </trkpt>
      <trkpt lat="48.65531" lon="7.16803">
        <ele>473.5</ele>
        <time>2020-08-12T07:25:47Z</time>
      </trkpt>
      <trkpt lat="48.6553" lon="7.16786">
        <ele>472.2</ele>
        <time>2020-08-12T07:25:49Z</time>
      </trkpt>
      <trkpt lat="48.65528" lon="7.1677">
        <ele>471.2</ele>
        <time>2020-08-12T07:25:51Z</time>
      </trkpt>
      <trkpt lat="48.65526" lon="7.16757">
        <ele>470.4</ele>
        <time>2020-08-12T07:25:53Z</time>
      </trkpt>
      <trkpt lat="48.65526" lon="7.16747">
        <ele>469</ele>
        <time>2020-08-12T07:25:55Z</time>
      </trkpt>
      <trkpt lat="48.65525" lon="7.16738">
        <ele>467.9</ele>
        <time>2020-08-12T07:25:57Z</time>
      </trkpt>
      <trkpt lat="48.65525" lon="7.16731">
        <ele>466.5</ele>
        <time>2020-08-12T07:26:00Z</time>
      </trkpt>
      <trkpt lat="48.65522" lon="7.16722">
        <ele>463.3</ele>
        <time>2020-08-12T07:26:09Z</time>
      </trkpt>
      <trkpt lat="48.65521" lon="7.16714">
        <ele>463</ele>
        <time>2020-08-12T07:26:11Z</time>
      </trkpt>
      <trkpt lat="48.6552" lon="7.16705">
        <ele>463.1</ele>
        <time>2020-08-12T07:26:13Z</time>
      </trkpt>
      <trkpt lat="48.65521" lon="7.16694">
        <ele>463.1</ele>
        <time>2020-08-12T07:26:15Z</time>
      </trkpt>
      <trkpt lat="48.65522" lon="7.16682">
        <ele>463.2</ele>
        <time>2020-08-12T07:26:17Z</time>
      </trkpt>
      <trkpt lat="48.65525" lon="7.16668">
        <ele>463.4</ele>
        <time>2020-08-12T07:26:19Z</time>
      </trkpt>
      <trkpt lat="48.65528" lon="7.16653">
        <ele>463.6</ele>
        <time>2020-08-12T07:26:21Z</time>
      </trkpt>
      <trkpt lat="48.65532" lon="7.16637">
        <ele>463.5</ele>
        <time>2020-08-12T07:26:23Z</time>
      </trkpt>
      <trkpt lat="48.65537" lon="7.16622">
        <ele>463.1</ele>
        <time>2020-08-12T07:26:25Z</time>
      </trkpt>
      <trkpt lat="48.65543" lon="7.16607">
        <ele>463.1</ele>
        <time>2020-08-12T07:26:27Z</time>
      </trkpt>
      <trkpt lat="48.65548" lon="7.16593">
        <ele>462.8</ele>
        <time>2020-08-12T07:26:29Z</time>
      </trkpt>
      <trkpt lat="48.6555" lon="7.16582">
        <ele>462.7</ele>
        <time>2020-08-12T07:26:31Z</time>
      </trkpt>
      <trkpt lat="48.65553" lon="7.16571">
        <ele>462.7</ele>
        <time>2020-08-12T07:26:33Z</time>
      </trkpt>
      <trkpt lat="48.65555" lon="7.16558">
        <ele>463</ele>
        <time>2020-08-12T07:26:35Z</time>
      </trkpt>
      <trkpt lat="48.65556" lon="7.16543">
        <ele>463</ele>
        <time>2020-08-12T07:26:37Z</time>
      </trkpt>
      <trkpt lat="48.65558" lon="7.16529">
        <ele>463.2</ele>
        <time>2020-08-12T07:26:39Z</time>
      </trkpt>
      <trkpt lat="48.65559" lon="7.16517">
        <ele>463.6</ele>
        <time>2020-08-12T07:26:41Z</time>
      </trkpt>
      <trkpt lat="48.6556" lon="7.16505">
        <ele>463.5</ele>
        <time>2020-08-12T07:26:43Z</time>
      </trkpt>
      <trkpt lat="48.6556" lon="7.16493">
        <ele>463.5</ele>
        <time>2020-08-12T07:26:45Z</time>
      </trkpt>
      <trkpt lat="48.65559" lon="7.16479">
        <ele>465</ele>
        <time>2020-08-12T07:26:47Z</time>
      </trkpt>
      <trkpt lat="48.65557" lon="7.16465">
        <ele>465.8</ele>
        <time>2020-08-12T07:26:49Z</time>
      </trkpt>
      <trkpt lat="48.65555" lon="7.1645">
        <ele>466.9</ele>
        <time>2020-08-12T07:26:51Z</time>
      </trkpt>
      <trkpt lat="48.65552" lon="7.16435">
        <ele>467.8</ele>
        <time>2020-08-12T07:26:53Z</time>
      </trkpt>
      <trkpt lat="48.6555" lon="7.16421">
        <ele>468</ele>
        <time>2020-08-12T07:26:55Z</time>
      </trkpt>
      <trkpt lat="48.65548" lon="7.16408">
        <ele>468.7</ele>
        <time>2020-08-12T07:26:57Z</time>
      </trkpt>
      <trkpt lat="48.65546" lon="7.16395">
        <ele>469</ele>
        <time>2020-08-12T07:26:59Z</time>
      </trkpt>
      <trkpt lat="48.65543" lon="7.16383">
        <ele>469.4</ele>
        <time>2020-08-12T07:27:01Z</time>
      </trkpt>
      <trkpt lat="48.65539" lon="7.16368">
        <ele>469.4</ele>
        <time>2020-08-12T07:27:03Z</time>
      </trkpt>
      <trkpt lat="48.65536" lon="7.16354">
        <ele>469.4</ele>
        <time>2020-08-12T07:27:05Z</time>
      </trkpt>
      <trkpt lat="48.65533" lon="7.16339">
        <ele>470.4</ele>
        <time>2020-08-12T07:27:07Z</time>
      </trkpt>
      <trkpt lat="48.6553" lon="7.16324">
        <ele>470.7</ele>
        <time>2020-08-12T07:27:09Z</time>
      </trkpt>
      <trkpt lat="48.65526" lon="7.16312">
        <ele>471.3</ele>
        <time>2020-08-12T07:27:11Z</time>
      </trkpt>
      <trkpt lat="48.65523" lon="7.16301">
        <ele>471.3</ele>
        <time>2020-08-12T07:27:13Z</time>
      </trkpt>
      <trkpt lat="48.65519" lon="7.1629">
        <ele>471</ele>
        <time>2020-08-12T07:27:15Z</time>
      </trkpt>
      <trkpt lat="48.65515" lon="7.16281">
        <ele>470.1</ele>
        <time>2020-08-12T07:27:17Z</time>
      </trkpt>
      <trkpt lat="48.65512" lon="7.1627">
        <ele>469.1</ele>
        <time>2020-08-12T07:27:19Z</time>
      </trkpt>
      <trkpt lat="48.65506" lon="7.16258">
        <ele>468.7</ele>
        <time>2020-08-12T07:27:21Z</time>
      </trkpt>
      <trkpt lat="48.65502" lon="7.16246">
        <ele>468.2</ele>
        <time>2020-08-12T07:27:23Z</time>
      </trkpt>
      <trkpt lat="48.65499" lon="7.16235">
        <ele>467.8</ele>
        <time>2020-08-12T07:27:25Z</time>
      </trkpt>
      <trkpt lat="48.65496" lon="7.16228">
        <ele>467.9</ele>
        <time>2020-08-12T07:27:28Z</time>
      </trkpt>
      <trkpt lat="48.65493" lon="7.1622">
        <ele>466.9</ele>
        <time>2020-08-12T07:27:34Z</time>
      </trkpt>
      <trkpt lat="48.65489" lon="7.16214">
        <ele>466.4</ele>
        <time>2020-08-12T07:27:36Z</time>
      </trkpt>
      <trkpt lat="48.65485" lon="7.16206">
        <ele>465.7</ele>
        <time>2020-08-12T07:27:38Z</time>
      </trkpt>
      <trkpt lat="48.6548" lon="7.16197">
        <ele>464.5</ele>
        <time>2020-08-12T07:27:40Z</time>
      </trkpt>
      <trkpt lat="48.65476" lon="7.16189">
        <ele>463.9</ele>
        <time>2020-08-12T07:27:42Z</time>
      </trkpt>
      <trkpt lat="48.65472" lon="7.16182">
        <ele>463.3</ele>
        <time>2020-08-12T07:27:45Z</time>
      </trkpt>
      <trkpt lat="48.65467" lon="7.16174">
        <ele>462.5</ele>
        <time>2020-08-12T07:27:48Z</time>
      </trkpt>
      <trkpt lat="48.65462" lon="7.16166">
        <ele>462.3</ele>
        <time>2020-08-12T07:27:50Z</time>
      </trkpt>
      <trkpt lat="48.65457" lon="7.16159">
        <ele>462.3</ele>
        <time>2020-08-12T07:27:52Z</time>
      </trkpt>
      <trkpt lat="48.65453" lon="7.16151">
        <ele>461.9</ele>
        <time>2020-08-12T07:27:54Z</time>
      </trkpt>
      <trkpt lat="48.65448" lon="7.16145">
        <ele>461.6</ele>
        <time>2020-08-12T07:27:57Z</time>
      </trkpt>
      <trkpt lat="48.65444" lon="7.1614">
        <ele>461.3</ele>
        <time>2020-08-12T07:28:07Z</time>
      </trkpt>
      <trkpt lat="48.65442" lon="7.1613">
        <ele>460.5</ele>
        <time>2020-08-12T07:28:09Z</time>
      </trkpt>
      <trkpt lat="48.65442" lon="7.16117">
        <ele>459.7</ele>
        <time>2020-08-12T07:28:11Z</time>
      </trkpt>
      <trkpt lat="48.65445" lon="7.16103">
        <ele>458.6</ele>
        <time>2020-08-12T07:28:13Z</time>
      </trkpt>
      <trkpt lat="48.6545" lon="7.1609">
        <ele>457.5</ele>
        <time>2020-08-12T07:28:15Z</time>
      </trkpt>
      <trkpt lat="48.65458" lon="7.16075">
        <ele>456.6</ele>
        <time>2020-08-12T07:28:17Z</time>
      </trkpt>
      <trkpt lat="48.65467" lon="7.16057">
        <ele>455.4</ele>
        <time>2020-08-12T07:28:19Z</time>
      </trkpt>
      <trkpt lat="48.65477" lon="7.16034">
        <ele>453.3</ele>
        <time>2020-08-12T07:28:21Z</time>
      </trkpt>
      <trkpt lat="48.65486" lon="7.1601">
        <ele>452.2</ele>
        <time>2020-08-12T07:28:23Z</time>
      </trkpt>
      <trkpt lat="48.65496" lon="7.15986">
        <ele>451.8</ele>
        <time>2020-08-12T07:28:25Z</time>
      </trkpt>
      <trkpt lat="48.65508" lon="7.15962">
        <ele>451.1</ele>
        <time>2020-08-12T07:28:27Z</time>
      </trkpt>
      <trkpt lat="48.6552" lon="7.15939">
        <ele>450</ele>
        <time>2020-08-12T07:28:29Z</time>
      </trkpt>
      <trkpt lat="48.65532" lon="7.15916">
        <ele>448.2</ele>
        <time>2020-08-12T07:28:31Z</time>
      </trkpt>
      <trkpt lat="48.65544" lon="7.15894">
        <ele>446.2</ele>
        <time>2020-08-12T07:28:33Z</time>
      </trkpt>
      <trkpt lat="48.65557" lon="7.15873">
        <ele>443.8</ele>
        <time>2020-08-12T07:28:35Z</time>
      </trkpt>
      <trkpt lat="48.65567" lon="7.15853">
        <ele>441.8</ele>
        <time>2020-08-12T07:28:37Z</time>
      </trkpt>
      <trkpt lat="48.65574" lon="7.15835">
        <ele>439.9</ele>
        <time>2020-08-12T07:28:39Z</time>
      </trkpt>
      <trkpt lat="48.65581" lon="7.15819">
        <ele>437.7</ele>
        <time>2020-08-12T07:28:41Z</time>
      </trkpt>
      <trkpt lat="48.65587" lon="7.15802">
        <ele>435.9</ele>
        <time>2020-08-12T07:28:43Z</time>
      </trkpt>
      <trkpt lat="48.65594" lon="7.15784">
        <ele>434.1</ele>
        <time>2020-08-12T07:28:45Z</time>
      </trkpt>
      <trkpt lat="48.65602" lon="7.15766">
        <ele>432.6</ele>
        <time>2020-08-12T07:28:47Z</time>
      </trkpt>
      <trkpt lat="48.65608" lon="7.15745">
        <ele>430.8</ele>
        <time>2020-08-12T07:28:49Z</time>
      </trkpt>
      <trkpt lat="48.65611" lon="7.15723">
        <ele>429</ele>
        <time>2020-08-12T07:28:51Z</time>
      </trkpt>
      <trkpt lat="48.65612" lon="7.157">
        <ele>426.1</ele>
        <time>2020-08-12T07:28:53Z</time>
      </trkpt>
      <trkpt lat="48.65611" lon="7.15677">
        <ele>423.2</ele>
        <time>2020-08-12T07:28:55Z</time>
      </trkpt>
      <trkpt lat="48.65608" lon="7.15658">
        <ele>420</ele>
        <time>2020-08-12T07:28:57Z</time>
      </trkpt>
      <trkpt lat="48.65603" lon="7.15641">
        <ele>416.9</ele>
        <time>2020-08-12T07:28:59Z</time>
      </trkpt>
      <trkpt lat="48.65595" lon="7.15631">
        <ele>414.2</ele>
        <time>2020-08-12T07:29:01Z</time>
      </trkpt>
      <trkpt lat="48.65585" lon="7.1563">
        <ele>412.3</ele>
        <time>2020-08-12T07:29:03Z</time>
      </trkpt>
      <trkpt lat="48.65573" lon="7.15637">
        <ele>410.2</ele>
        <time>2020-08-12T07:29:05Z</time>
      </trkpt>
      <trkpt lat="48.65557" lon="7.1565">
        <ele>406.8</ele>
        <time>2020-08-12T07:29:08Z</time>
      </trkpt>
      <trkpt lat="48.65546" lon="7.15656">
        <ele>404.7</ele>
        <time>2020-08-12T07:29:10Z</time>
      </trkpt>
      <trkpt lat="48.6554" lon="7.15658">
        <ele>403.4</ele>
        <time>2020-08-12T07:29:12Z</time>
      </trkpt>
      <trkpt lat="48.65536" lon="7.1566">
        <ele>401.8</ele>
        <time>2020-08-12T07:29:21Z</time>
      </trkpt>
      <trkpt lat="48.65529" lon="7.15663">
        <ele>401.6</ele>
        <time>2020-08-12T07:29:24Z</time>
      </trkpt>
      <trkpt lat="48.65522" lon="7.15666">
        <ele>401.3</ele>
        <time>2020-08-12T07:29:26Z</time>
      </trkpt>
      <trkpt lat="48.65513" lon="7.15668">
        <ele>401.4</ele>
        <time>2020-08-12T07:29:28Z</time>
      </trkpt>
      <trkpt lat="48.65504" lon="7.15671">
        <ele>401.4</ele>
        <time>2020-08-12T07:29:30Z</time>
      </trkpt>
      <trkpt lat="48.65495" lon="7.15672">
        <ele>400.9</ele>
        <time>2020-08-12T07:29:33Z</time>
      </trkpt>
      <trkpt lat="48.6549" lon="7.15673">
        <ele>400</ele>
        <time>2020-08-12T07:29:35Z</time>
      </trkpt>
      <trkpt lat="48.65481" lon="7.15674">
        <ele>398.8</ele>
        <time>2020-08-12T07:29:37Z</time>
      </trkpt>
      <trkpt lat="48.65469" lon="7.15676">
        <ele>397.2</ele>
        <time>2020-08-12T07:29:39Z</time>
      </trkpt>
      <trkpt lat="48.65456" lon="7.15677">
        <ele>395.5</ele>
        <time>2020-08-12T07:29:41Z</time>
      </trkpt>
      <trkpt lat="48.65434" lon="7.15679">
        <ele>392</ele>
        <time>2020-08-12T07:29:44Z</time>
      </trkpt>
      <trkpt lat="48.65419" lon="7.15678">
        <ele>390</ele>
        <time>2020-08-12T07:29:46Z</time>
      </trkpt>
      <trkpt lat="48.65399" lon="7.15668">
        <ele>386.1</ele>
        <time>2020-08-12T07:29:49Z</time>
      </trkpt>
      <trkpt lat="48.65388" lon="7.15652">
        <ele>383.4</ele>
        <time>2020-08-12T07:29:51Z</time>
      </trkpt>
      <trkpt lat="48.65378" lon="7.15631">
        <ele>381.1</ele>
        <time>2020-08-12T07:29:53Z</time>
      </trkpt>
      <trkpt lat="48.65369" lon="7.15608">
        <ele>379.2</ele>
        <time>2020-08-12T07:29:55Z</time>
      </trkpt>
      <trkpt lat="48.65361" lon="7.15584">
        <ele>376.8</ele>
        <time>2020-08-12T07:29:57Z</time>
      </trkpt>
      <trkpt lat="48.65354" lon="7.15559">
        <ele>374.4</ele>
        <time>2020-08-12T07:29:59Z</time>
      </trkpt>
      <trkpt lat="48.65348" lon="7.15533">
        <ele>372.2</ele>
        <time>2020-08-12T07:30:01Z</time>
      </trkpt>
      <trkpt lat="48.65343" lon="7.15506">
        <ele>369.8</ele>
        <time>2020-08-12T07:30:03Z</time>
      </trkpt>
      <trkpt lat="48.65337" lon="7.15467">
        <ele>366</ele>
        <time>2020-08-12T07:30:06Z</time>
      </trkpt>
      <trkpt lat="48.65334" lon="7.1544">
        <ele>363.4</ele>
        <time>2020-08-12T07:30:08Z</time>
      </trkpt>
      <trkpt lat="48.65332" lon="7.15412">
        <ele>360.9</ele>
        <time>2020-08-12T07:30:10Z</time>
      </trkpt>
      <trkpt lat="48.65329" lon="7.15385">
        <ele>358.7</ele>
        <time>2020-08-12T07:30:12Z</time>
      </trkpt>
      <trkpt lat="48.65325" lon="7.15344">
        <ele>355.4</ele>
        <time>2020-08-12T07:30:15Z</time>
      </trkpt>
      <trkpt lat="48.65322" lon="7.15317">
        <ele>353.4</ele>
        <time>2020-08-12T07:30:17Z</time>
      </trkpt>
      <trkpt lat="48.65319" lon="7.15291">
        <ele>351.2</ele>
        <time>2020-08-12T07:30:19Z</time>
      </trkpt>
      <trkpt lat="48.65317" lon="7.15265">
        <ele>349.3</ele>
        <time>2020-08-12T07:30:21Z</time>
      </trkpt>
      <trkpt lat="48.65317" lon="7.1524">
        <ele>347.3</ele>
        <time>2020-08-12T07:30:23Z</time>
      </trkpt>
      <trkpt lat="48.65316" lon="7.15216">
        <ele>345.7</ele>
        <time>2020-08-12T07:30:25Z</time>
      </trkpt>
      <trkpt lat="48.65315" lon="7.15184">
        <ele>343.7</ele>
        <time>2020-08-12T07:30:28Z</time>
      </trkpt>
      <trkpt lat="48.65314" lon="7.15165">
        <ele>342.4</ele>
        <time>2020-08-12T07:30:30Z</time>
      </trkpt>
      <trkpt lat="48.65314" lon="7.15148">
        <ele>341.4</ele>
        <time>2020-08-12T07:30:32Z</time>
      </trkpt>
      <trkpt lat="48.65316" lon="7.15134">
        <ele>340.2</ele>
        <time>2020-08-12T07:30:34Z</time>
      </trkpt>
      <trkpt lat="48.65317" lon="7.15127">
        <ele>339.8</ele>
        <time>2020-08-12T07:30:36Z</time>
      </trkpt>
      <trkpt lat="48.65317" lon="7.1512">
        <ele>340.5</ele>
        <time>2020-08-12T07:30:49Z</time>
      </trkpt>
      <trkpt lat="48.65314" lon="7.15112">
        <ele>342</ele>
        <time>2020-08-12T07:30:59Z</time>
      </trkpt>
      <trkpt lat="48.65309" lon="7.15109">
        <ele>342.1</ele>
        <time>2020-08-12T07:31:01Z</time>
      </trkpt>
      <trkpt lat="48.65304" lon="7.15107">
        <ele>342.3</ele>
        <time>2020-08-12T07:31:03Z</time>
      </trkpt>
      <trkpt lat="48.65299" lon="7.15104">
        <ele>341.9</ele>
        <time>2020-08-12T07:31:05Z</time>
      </trkpt>
      <trkpt lat="48.65293" lon="7.15102">
        <ele>342.2</ele>
        <time>2020-08-12T07:31:08Z</time>
      </trkpt>
      <trkpt lat="48.65289" lon="7.15098">
        <ele>343.8</ele>
        <time>2020-08-12T07:31:14Z</time>
      </trkpt>
      <trkpt lat="48.65285" lon="7.15098">
        <ele>344.5</ele>
        <time>2020-08-12T07:31:17Z</time>
      </trkpt>
      <trkpt lat="48.65278" lon="7.15097">
        <ele>345</ele>
        <time>2020-08-12T07:31:20Z</time>
      </trkpt>
      <trkpt lat="48.65272" lon="7.15096">
        <ele>345.1</ele>
        <time>2020-08-12T07:31:22Z</time>
      </trkpt>
      <trkpt lat="48.65271" lon="7.15102">
        <ele>341.2</ele>
        <time>2020-08-12T07:31:40Z</time>
      </trkpt>
      <trkpt lat="48.65266" lon="7.151">
        <ele>339.4</ele>
        <time>2020-08-12T07:32:31Z</time>
      </trkpt>
      <trkpt lat="48.65264" lon="7.15091">
        <ele>338.7</ele>
        <time>2020-08-12T07:32:33Z</time>
      </trkpt>
      <trkpt lat="48.65263" lon="7.15079">
        <ele>337.9</ele>
        <time>2020-08-12T07:32:35Z</time>
      </trkpt>
      <trkpt lat="48.65262" lon="7.15063">
        <ele>337.1</ele>
        <time>2020-08-12T07:32:37Z</time>
      </trkpt>
      <trkpt lat="48.65263" lon="7.1504">
        <ele>335.6</ele>
        <time>2020-08-12T07:32:40Z</time>
      </trkpt>
      <trkpt lat="48.65263" lon="7.1503">
        <ele>334.9</ele>
        <time>2020-08-12T07:32:42Z</time>
      </trkpt>
      <trkpt lat="48.65262" lon="7.15023">
        <ele>333.1</ele>
        <time>2020-08-12T07:32:52Z</time>
      </trkpt>
      <trkpt lat="48.65259" lon="7.15016">
        <ele>331.8</ele>
        <time>2020-08-12T07:32:58Z</time>
      </trkpt>
      <trkpt lat="48.65248" lon="7.15012">
        <ele>331.3</ele>
        <time>2020-08-12T07:33:01Z</time>
      </trkpt>
      <trkpt lat="48.65237" lon="7.15">
        <ele>331.2</ele>
        <time>2020-08-12T07:33:04Z</time>
      </trkpt>
      <trkpt lat="48.65233" lon="7.14987">
        <ele>331.3</ele>
        <time>2020-08-12T07:33:06Z</time>
      </trkpt>
      <trkpt lat="48.65229" lon="7.14973">
        <ele>331.6</ele>
        <time>2020-08-12T07:33:08Z</time>
      </trkpt>
      <trkpt lat="48.65225" lon="7.14958">
        <ele>331.2</ele>
        <time>2020-08-12T07:33:10Z</time>
      </trkpt>
      <trkpt lat="48.65222" lon="7.14944">
        <ele>330.6</ele>
        <time>2020-08-12T07:33:12Z</time>
      </trkpt>
      <trkpt lat="48.65222" lon="7.14933">
        <ele>329.5</ele>
        <time>2020-08-12T07:33:14Z</time>
      </trkpt>
      <trkpt lat="48.6522" lon="7.14927">
        <ele>327.9</ele>
        <time>2020-08-12T07:33:32Z</time>
      </trkpt>
      <trkpt lat="48.65217" lon="7.14921">
        <ele>328.1</ele>
        <time>2020-08-12T07:34:41Z</time>
      </trkpt>
      <trkpt lat="48.65214" lon="7.14915">
        <ele>328</ele>
        <time>2020-08-12T07:34:43Z</time>
      </trkpt>
      <trkpt lat="48.65211" lon="7.14906">
        <ele>328</ele>
        <time>2020-08-12T07:34:45Z</time>
      </trkpt>
      <trkpt lat="48.65207" lon="7.14898">
        <ele>327.9</ele>
        <time>2020-08-12T07:34:47Z</time>
      </trkpt>
      <trkpt lat="48.65202" lon="7.14889">
        <ele>327.8</ele>
        <time>2020-08-12T07:34:49Z</time>
      </trkpt>
      <trkpt lat="48.65197" lon="7.14883">
        <ele>327.6</ele>
        <time>2020-08-12T07:34:51Z</time>
      </trkpt>
      <trkpt lat="48.65191" lon="7.14878">
        <ele>328</ele>
        <time>2020-08-12T07:34:53Z</time>
      </trkpt>
      <trkpt lat="48.65185" lon="7.14874">
        <ele>328.3</ele>
        <time>2020-08-12T07:34:55Z</time>
      </trkpt>
      <trkpt lat="48.6518" lon="7.14871">
        <ele>328.3</ele>
        <time>2020-08-12T07:34:57Z</time>
      </trkpt>
      <trkpt lat="48.65175" lon="7.14869">
        <ele>328.4</ele>
        <time>2020-08-12T07:34:59Z</time>
      </trkpt>
      <trkpt lat="48.65169" lon="7.14867">
        <ele>328.4</ele>
        <time>2020-08-12T07:35:01Z</time>
      </trkpt>
      <trkpt lat="48.65163" lon="7.14865">
        <ele>328.9</ele>
        <time>2020-08-12T07:35:03Z</time>
      </trkpt>
      <trkpt lat="48.65157" lon="7.14864">
        <ele>329.1</ele>
        <time>2020-08-12T07:35:05Z</time>
      </trkpt>
      <trkpt lat="48.6515" lon="7.14863">
        <ele>330</ele>
        <time>2020-08-12T07:35:07Z</time>
      </trkpt>
      <trkpt lat="48.65144" lon="7.14863">
        <ele>330.5</ele>
        <time>2020-08-12T07:35:09Z</time>
      </trkpt>
      <trkpt lat="48.65137" lon="7.14863">
        <ele>331.1</ele>
        <time>2020-08-12T07:35:11Z</time>
      </trkpt>
      <trkpt lat="48.65131" lon="7.14864">
        <ele>331.4</ele>
        <time>2020-08-12T07:35:13Z</time>
      </trkpt>
      <trkpt lat="48.65124" lon="7.14866">
        <ele>332.3</ele>
        <time>2020-08-12T07:35:15Z</time>
      </trkpt>
      <trkpt lat="48.65118" lon="7.14867">
        <ele>333.9</ele>
        <time>2020-08-12T07:35:17Z</time>
      </trkpt>
      <trkpt lat="48.65112" lon="7.1487">
        <ele>334.9</ele>
        <time>2020-08-12T07:35:19Z</time>
      </trkpt>
      <trkpt lat="48.65106" lon="7.14873">
        <ele>335.9</ele>
        <time>2020-08-12T07:35:21Z</time>
      </trkpt>
      <trkpt lat="48.651" lon="7.14876">
        <ele>336.7</ele>
        <time>2020-08-12T07:35:23Z</time>
      </trkpt>
      <trkpt lat="48.65094" lon="7.14878">
        <ele>336.8</ele>
        <time>2020-08-12T07:35:25Z</time>
      </trkpt>
      <trkpt lat="48.65089" lon="7.14881">
        <ele>337.1</ele>
        <time>2020-08-12T07:35:27Z</time>
      </trkpt>
      <trkpt lat="48.65083" lon="7.14884">
        <ele>337.1</ele>
        <time>2020-08-12T07:35:29Z</time>
      </trkpt>
      <trkpt lat="48.65078" lon="7.14887">
        <ele>337.4</ele>
        <time>2020-08-12T07:35:31Z</time>
      </trkpt>
      <trkpt lat="48.65073" lon="7.1489">
        <ele>337.6</ele>
        <time>2020-08-12T07:35:33Z</time>
      </trkpt>
      <trkpt lat="48.65067" lon="7.14892">
        <ele>338</ele>
        <time>2020-08-12T07:35:35Z</time>
      </trkpt>
      <trkpt lat="48.65062" lon="7.14894">
        <ele>338.5</ele>
        <time>2020-08-12T07:35:37Z</time>
      </trkpt>
      <trkpt lat="48.65056" lon="7.14895">
        <ele>338.5</ele>
        <time>2020-08-12T07:35:39Z</time>
      </trkpt>
      <trkpt lat="48.6505" lon="7.14897">
        <ele>338.6</ele>
        <time>2020-08-12T07:35:41Z</time>
      </trkpt>
      <trkpt lat="48.65044" lon="7.14899">
        <ele>338.8</ele>
        <time>2020-08-12T07:35:43Z</time>
      </trkpt>
      <trkpt lat="48.65038" lon="7.14901">
        <ele>339</ele>
        <time>2020-08-12T07:35:45Z</time>
      </trkpt>
      <trkpt lat="48.65032" lon="7.14903">
        <ele>339</ele>
        <time>2020-08-12T07:35:47Z</time>
      </trkpt>
      <trkpt lat="48.65026" lon="7.14905">
        <ele>338.9</ele>
        <time>2020-08-12T07:35:49Z</time>
      </trkpt>
      <trkpt lat="48.6502" lon="7.14906">
        <ele>339.2</ele>
        <time>2020-08-12T07:35:51Z</time>
      </trkpt>
      <trkpt lat="48.65014" lon="7.14907">
        <ele>339.4</ele>
        <time>2020-08-12T07:35:53Z</time>
      </trkpt>
      <trkpt lat="48.65007" lon="7.14908">
        <ele>339.8</ele>
        <time>2020-08-12T07:35:55Z</time>
      </trkpt>
      <trkpt lat="48.65" lon="7.14908">
        <ele>340.2</ele>
        <time>2020-08-12T07:35:57Z</time>
      </trkpt>
      <trkpt lat="48.64993" lon="7.14907">
        <ele>340.6</ele>
        <time>2020-08-12T07:35:59Z</time>
      </trkpt>
      <trkpt lat="48.64985" lon="7.14906">
        <ele>341</ele>
        <time>2020-08-12T07:36:01Z</time>
      </trkpt>
      <trkpt lat="48.64977" lon="7.14905">
        <ele>341.1</ele>
        <time>2020-08-12T07:36:03Z</time>
      </trkpt>
      <trkpt lat="48.6497" lon="7.14904">
        <ele>341.3</ele>
        <time>2020-08-12T07:36:05Z</time>
      </trkpt>
      <trkpt lat="48.64962" lon="7.14902">
        <ele>341.6</ele>
        <time>2020-08-12T07:36:07Z</time>
      </trkpt>
      <trkpt lat="48.64956" lon="7.14898">
        <ele>341.8</ele>
        <time>2020-08-12T07:36:09Z</time>
      </trkpt>
      <trkpt lat="48.64949" lon="7.14894">
        <ele>342</ele>
        <time>2020-08-12T07:36:11Z</time>
      </trkpt>
      <trkpt lat="48.64942" lon="7.1489">
        <ele>341.8</ele>
        <time>2020-08-12T07:36:13Z</time>
      </trkpt>
      <trkpt lat="48.64935" lon="7.14885">
        <ele>341.9</ele>
        <time>2020-08-12T07:36:15Z</time>
      </trkpt>
      <trkpt lat="48.64929" lon="7.1488">
        <ele>341.6</ele>
        <time>2020-08-12T07:36:17Z</time>
      </trkpt>
      <trkpt lat="48.64922" lon="7.14875">
        <ele>341.5</ele>
        <time>2020-08-12T07:36:19Z</time>
      </trkpt>
      <trkpt lat="48.64916" lon="7.14869">
        <ele>341</ele>
        <time>2020-08-12T07:36:21Z</time>
      </trkpt>
      <trkpt lat="48.6491" lon="7.14862">
        <ele>340.4</ele>
        <time>2020-08-12T07:36:23Z</time>
      </trkpt>
      <trkpt lat="48.64904" lon="7.14856">
        <ele>340.2</ele>
        <time>2020-08-12T07:36:25Z</time>
      </trkpt>
      <trkpt lat="48.64898" lon="7.14849">
        <ele>340.1</ele>
        <time>2020-08-12T07:36:27Z</time>
      </trkpt>
      <trkpt lat="48.64892" lon="7.14841">
        <ele>339.6</ele>
        <time>2020-08-12T07:36:29Z</time>
      </trkpt>
      <trkpt lat="48.64886" lon="7.14832">
        <ele>339.5</ele>
        <time>2020-08-12T07:36:31Z</time>
      </trkpt>
      <trkpt lat="48.6488" lon="7.14823">
        <ele>339.1</ele>
        <time>2020-08-12T07:36:33Z</time>
      </trkpt>
      <trkpt lat="48.64873" lon="7.14814">
        <ele>339.1</ele>
        <time>2020-08-12T07:36:35Z</time>
      </trkpt>
      <trkpt lat="48.64866" lon="7.14804">
        <ele>338.9</ele>
        <time>2020-08-12T07:36:37Z</time>
      </trkpt>
      <trkpt lat="48.6486" lon="7.14795">
        <ele>338.7</ele>
        <time>2020-08-12T07:36:39Z</time>
      </trkpt>
      <trkpt lat="48.64853" lon="7.14785">
        <ele>338.3</ele>
        <time>2020-08-12T07:36:41Z</time>
      </trkpt>
      <trkpt lat="48.64845" lon="7.14778">
        <ele>338.1</ele>
        <time>2020-08-12T07:36:43Z</time>
      </trkpt>
      <trkpt lat="48.64836" lon="7.14774">
        <ele>338</ele>
        <time>2020-08-12T07:36:45Z</time>
      </trkpt>
      <trkpt lat="48.64827" lon="7.14774">
        <ele>338.2</ele>
        <time>2020-08-12T07:36:47Z</time>
      </trkpt>
      <trkpt lat="48.64818" lon="7.14776">
        <ele>338.4</ele>
        <time>2020-08-12T07:36:49Z</time>
      </trkpt>
      <trkpt lat="48.6481" lon="7.14782">
        <ele>338.6</ele>
        <time>2020-08-12T07:36:51Z</time>
      </trkpt>
      <trkpt lat="48.64804" lon="7.14789">
        <ele>338.8</ele>
        <time>2020-08-12T07:36:53Z</time>
      </trkpt>
      <trkpt lat="48.64798" lon="7.14796">
        <ele>339</ele>
        <time>2020-08-12T07:36:55Z</time>
      </trkpt>
      <trkpt lat="48.64792" lon="7.14804">
        <ele>339.3</ele>
        <time>2020-08-12T07:36:57Z</time>
      </trkpt>
      <trkpt lat="48.64787" lon="7.14813">
        <ele>339.8</ele>
        <time>2020-08-12T07:36:59Z</time>
      </trkpt>
      <trkpt lat="48.64782" lon="7.14821">
        <ele>340.2</ele>
        <time>2020-08-12T07:37:01Z</time>
      </trkpt>
      <trkpt lat="48.64776" lon="7.14829">
        <ele>340.8</ele>
        <time>2020-08-12T07:37:03Z</time>
      </trkpt>
      <trkpt lat="48.64771" lon="7.14838">
        <ele>341.1</ele>
        <time>2020-08-12T07:37:05Z</time>
      </trkpt>
      <trkpt lat="48.64766" lon="7.14845">
        <ele>342.1</ele>
        <time>2020-08-12T07:37:07Z</time>
      </trkpt>
      <trkpt lat="48.6476" lon="7.14852">
        <ele>342.7</ele>
        <time>2020-08-12T07:37:09Z</time>
      </trkpt>
      <trkpt lat="48.64754" lon="7.14857">
        <ele>343.6</ele>
        <time>2020-08-12T07:37:11Z</time>
      </trkpt>
      <trkpt lat="48.64747" lon="7.14861">
        <ele>344.7</ele>
        <time>2020-08-12T07:37:13Z</time>
      </trkpt>
      <trkpt lat="48.6474" lon="7.14862">
        <ele>346.1</ele>
        <time>2020-08-12T07:37:15Z</time>
      </trkpt>
      <trkpt lat="48.64734" lon="7.14862">
        <ele>347.4</ele>
        <time>2020-08-12T07:37:17Z</time>
      </trkpt>
      <trkpt lat="48.64728" lon="7.14865">
        <ele>348.6</ele>
        <time>2020-08-12T07:37:19Z</time>
      </trkpt>
      <trkpt lat="48.64725" lon="7.14871">
        <ele>349.8</ele>
        <time>2020-08-12T07:37:21Z</time>
      </trkpt>
      <trkpt lat="48.64728" lon="7.14865">
        <ele>352.8</ele>
        <time>2020-08-12T07:37:42Z</time>
      </trkpt>
      <trkpt lat="48.64724" lon="7.14858">
        <ele>352.7</ele>
        <time>2020-08-12T07:37:45Z</time>
      </trkpt>
      <trkpt lat="48.64718" lon="7.14853">
        <ele>353.1</ele>
        <time>2020-08-12T07:37:48Z</time>
      </trkpt>
      <trkpt lat="48.64714" lon="7.1485">
        <ele>353.1</ele>
        <time>2020-08-12T07:37:50Z</time>
      </trkpt>
      <trkpt lat="48.64709" lon="7.14846">
        <ele>353.3</ele>
        <time>2020-08-12T07:37:52Z</time>
      </trkpt>
      <trkpt lat="48.64704" lon="7.14843">
        <ele>353.5</ele>
        <time>2020-08-12T07:37:54Z</time>
      </trkpt>
      <trkpt lat="48.64699" lon="7.14839">
        <ele>353.5</ele>
        <time>2020-08-12T07:37:56Z</time>
      </trkpt>
      <trkpt lat="48.64694" lon="7.14836">
        <ele>353.7</ele>
        <time>2020-08-12T07:37:58Z</time>
      </trkpt>
      <trkpt lat="48.64689" lon="7.14832">
        <ele>353.9</ele>
        <time>2020-08-12T07:38:00Z</time>
      </trkpt>
      <trkpt lat="48.64685" lon="7.14828">
        <ele>354</ele>
        <time>2020-08-12T07:38:02Z</time>
      </trkpt>
      <trkpt lat="48.64679" lon="7.14825">
        <ele>354.4</ele>
        <time>2020-08-12T07:38:04Z</time>
      </trkpt>
      <trkpt lat="48.64674" lon="7.14823">
        <ele>354.6</ele>
        <time>2020-08-12T07:38:06Z</time>
      </trkpt>
      <trkpt lat="48.64668" lon="7.1482">
        <ele>355.1</ele>
        <time>2020-08-12T07:38:08Z</time>
      </trkpt>
      <trkpt lat="48.64662" lon="7.14817">
        <ele>355.4</ele>
        <time>2020-08-12T07:38:10Z</time>
      </trkpt>
      <trkpt lat="48.64656" lon="7.14813">
        <ele>355.7</ele>
        <time>2020-08-12T07:38:12Z</time>
      </trkpt>
      <trkpt lat="48.64651" lon="7.14806">
        <ele>356.5</ele>
        <time>2020-08-12T07:38:14Z</time>
      </trkpt>
      <trkpt lat="48.64646" lon="7.14799">
        <ele>357.4</ele>
        <time>2020-08-12T07:38:16Z</time>
      </trkpt>
      <trkpt lat="48.64642" lon="7.14792">
        <ele>358.3</ele>
        <time>2020-08-12T07:38:18Z</time>
      </trkpt>
      <trkpt lat="48.64637" lon="7.14788">
        <ele>359.1</ele>
        <time>2020-08-12T07:38:20Z</time>
      </trkpt>
      <trkpt lat="48.64629" lon="7.14785">
        <ele>360.1</ele>
        <time>2020-08-12T07:38:23Z</time>
      </trkpt>
      <trkpt lat="48.64625" lon="7.14784">
        <ele>361</ele>
        <time>2020-08-12T07:38:25Z</time>
      </trkpt>
      <trkpt lat="48.6462" lon="7.14783">
        <ele>361.8</ele>
        <time>2020-08-12T07:38:27Z</time>
      </trkpt>
      <trkpt lat="48.64615" lon="7.14782">
        <ele>362.4</ele>
        <time>2020-08-12T07:38:29Z</time>
      </trkpt>
      <trkpt lat="48.6461" lon="7.1478">
        <ele>362.7</ele>
        <time>2020-08-12T07:38:31Z</time>
      </trkpt>
      <trkpt lat="48.64605" lon="7.14777">
        <ele>362.8</ele>
        <time>2020-08-12T07:38:33Z</time>
      </trkpt>
      <trkpt lat="48.64601" lon="7.14776">
        <ele>362.9</ele>
        <time>2020-08-12T07:38:35Z</time>
      </trkpt>
      <trkpt lat="48.64596" lon="7.14776">
        <ele>363.1</ele>
        <time>2020-08-12T07:38:37Z</time>
      </trkpt>
      <trkpt lat="48.6459" lon="7.14775">
        <ele>363.2</ele>
        <time>2020-08-12T07:38:39Z</time>
      </trkpt>
      <trkpt lat="48.64584" lon="7.14775">
        <ele>363.4</ele>
        <time>2020-08-12T07:38:41Z</time>
      </trkpt>
      <trkpt lat="48.64578" lon="7.14774">
        <ele>363.4</ele>
        <time>2020-08-12T07:38:43Z</time>
      </trkpt>
      <trkpt lat="48.64571" lon="7.14773">
        <ele>363.4</ele>
        <time>2020-08-12T07:38:45Z</time>
      </trkpt>
      <trkpt lat="48.64564" lon="7.14772">
        <ele>363.7</ele>
        <time>2020-08-12T07:38:47Z</time>
      </trkpt>
      <trkpt lat="48.64558" lon="7.14772">
        <ele>364.2</ele>
        <time>2020-08-12T07:38:49Z</time>
      </trkpt>
      <trkpt lat="48.64553" lon="7.14773">
        <ele>364.5</ele>
        <time>2020-08-12T07:38:51Z</time>
      </trkpt>
      <trkpt lat="48.64547" lon="7.14773">
        <ele>365.4</ele>
        <time>2020-08-12T07:38:53Z</time>
      </trkpt>
      <trkpt lat="48.64541" lon="7.14771">
        <ele>366.4</ele>
        <time>2020-08-12T07:38:56Z</time>
      </trkpt>
      <trkpt lat="48.64536" lon="7.14769">
        <ele>369.3</ele>
        <time>2020-08-12T07:39:08Z</time>
      </trkpt>
      <trkpt lat="48.64531" lon="7.14768">
        <ele>370.6</ele>
        <time>2020-08-12T07:39:13Z</time>
      </trkpt>
      <trkpt lat="48.64526" lon="7.14766">
        <ele>371.2</ele>
        <time>2020-08-12T07:39:18Z</time>
      </trkpt>
      <trkpt lat="48.64523" lon="7.14762">
        <ele>371.4</ele>
        <time>2020-08-12T07:39:28Z</time>
      </trkpt>
      <trkpt lat="48.64518" lon="7.14765">
        <ele>370.3</ele>
        <time>2020-08-12T07:39:34Z</time>
      </trkpt>
      <trkpt lat="48.64512" lon="7.14765">
        <ele>370</ele>
        <time>2020-08-12T07:39:39Z</time>
      </trkpt>
      <trkpt lat="48.6451" lon="7.14759">
        <ele>370.5</ele>
        <time>2020-08-12T07:39:45Z</time>
      </trkpt>
      <trkpt lat="48.64511" lon="7.14752">
        <ele>371.8</ele>
        <time>2020-08-12T07:40:02Z</time>
      </trkpt>
      <trkpt lat="48.64509" lon="7.14746">
        <ele>376.5</ele>
        <time>2020-08-12T07:40:40Z</time>
      </trkpt>
      <trkpt lat="48.64507" lon="7.1474">
        <ele>368.3</ele>
        <time>2020-08-12T07:40:59Z</time>
      </trkpt>
      <trkpt lat="48.64505" lon="7.14733">
        <ele>369.7</ele>
        <time>2020-08-12T07:41:07Z</time>
      </trkpt>
      <trkpt lat="48.64505" lon="7.14725">
        <ele>368.4</ele>
        <time>2020-08-12T07:41:20Z</time>
      </trkpt>
      <trkpt lat="48.64503" lon="7.14718">
        <ele>372.7</ele>
        <time>2020-08-12T07:41:25Z</time>
      </trkpt>
      <trkpt lat="48.64501" lon="7.1471">
        <ele>369.9</ele>
        <time>2020-08-12T07:41:32Z</time>
      </trkpt>
      <trkpt lat="48.645" lon="7.14704">
        <ele>372.5</ele>
        <time>2020-08-12T07:41:39Z</time>
      </trkpt>
      <trkpt lat="48.64499" lon="7.14696">
        <ele>378.7</ele>
        <time>2020-08-12T07:41:47Z</time>
      </trkpt>
      <trkpt lat="48.64498" lon="7.1469">
        <ele>381.9</ele>
        <time>2020-08-12T07:41:54Z</time>
      </trkpt>
      <trkpt lat="48.64498" lon="7.14682">
        <ele>383.7</ele>
        <time>2020-08-12T07:42:01Z</time>
      </trkpt>
      <trkpt lat="48.64497" lon="7.14675">
        <ele>388.4</ele>
        <time>2020-08-12T07:42:13Z</time>
      </trkpt>
    </trkseg>
  </trk>
</gpx>